Time;durP1;ratioP1;P1;durP2;ratioP2;P2;SDS_P1;SDS_P2;PMS_P1;PMS_P2;Temp;Humidity;BMP_temperature;BMP_pressure;BME280_temperature;BME280_humidity;BME280_pressure;Samples;Min_cycle;Max_cycle;Signal;HPM_P1;HPM_P2
2023/09/25 00:00:18;;;;;;;5.78;3.55;;;;;;;;;;5036115;28;20755;-78
2023/09/25 00:02:43;;;;;;;6.80;3.30;;;;;;;;;;5032653;28;20143;-78
2023/09/25 00:05:08;;;;;;;4.10;3.20;;;;;;;;;;5032098;28;20069;-79
2023/09/25 00:07:34;;;;;;;2.67;2.47;;;;;;;;;;5033108;28;20163;-78
2023/09/25 00:09:59;;;;;;;9.80;3.38;;;;;;;;;;5047937;28;20033;-78
2023/09/25 00:12:25;;;;;;;3.65;3.10;;;;;;;;;;5049210;28;20060;-78
2023/09/25 00:14:50;;;;;;;7.93;3.22;;;;;;;;;;5046608;28;20033;-78
2023/09/25 00:17:15;;;;;;;3.78;3.17;;;;;;;;;;5041223;28;20604;-77
2023/09/25 00:19:41;;;;;;;2.95;2.72;;;;;;;;;;5041733;28;20129;-78
2023/09/25 00:22:07;;;;;;;5.32;2.60;;;;;;;;;;5045553;28;20167;-77
2023/09/25 00:24:32;;;;;;;5.32;2.67;;;;;;;;;;5047690;28;20104;-78
2023/09/25 00:26:57;;;;;;;2.72;2.38;;;;;;;;;;5029253;28;20031;-78
2023/09/25 00:29:23;;;;;;;4.05;2.40;;;;;;;;;;5042903;28;20021;-78
2023/09/25 00:31:48;;;;;;;3.92;2.50;;;;;;;;;;5046585;28;20041;-78
2023/09/25 00:34:14;;;;;;;4.90;2.30;;;;;;;;;;5046571;28;20412;-78
2023/09/25 00:36:39;;;;;;;4.32;2.20;;;;;;;;;;5050129;28;20029;-78
2023/09/25 00:39:08;;;;;;;2.40;2.20;;;;;;;;;;5028170;28;20020;-78
2023/09/25 00:41:33;;;;;;;4.68;2.45;;;;;;;;;;5048745;28;20020;-79
2023/09/25 00:43:58;;;;;;;3.70;2.55;;;;;;;;;;5029682;28;20083;-78
2023/09/25 00:46:24;;;;;;;3.33;2.15;;;;;;;;;;5031827;28;20041;-79
2023/09/25 00:48:49;;;;;;;8.60;2.25;;;;;;;;;;5049484;28;20027;-78
2023/09/25 00:51:15;;;;;;;2.47;2.28;;;;;;;;;;5035168;28;20128;-79
2023/09/25 00:53:41;;;;;;;2.55;2.00;;;;;;;;;;5050448;28;20405;-79
2023/09/25 00:56:07;;;;;;;2.72;2.28;;;;;;;;;;5035558;28;20029;-78
2023/09/25 00:58:32;;;;;;;1.90;1.80;;;;;;;;;;5051566;28;20442;-79
2023/09/25 01:00:59;;;;;;;3.33;2.00;;;;;;;;;;5024805;28;20041;-78
2023/09/25 01:03:25;;;;;;;4.32;1.80;;;;;;;;;;5046771;28;20557;-78
2023/09/25 01:05:50;;;;;;;1.80;1.70;;;;;;;;;;5035535;28;20021;-78
2023/09/25 01:08:16;;;;;;;5.88;2.28;;;;;;;;;;5050405;28;20041;-79
2023/09/25 01:10:41;;;;;;;2.30;2.00;;;;;;;;;;5050010;28;20063;-78
2023/09/25 01:13:06;;;;;;;3.88;2.60;;;;;;;;;;5044995;28;20053;-79
2023/09/25 01:15:32;;;;;;;3.97;2.10;;;;;;;;;;5028182;28;20041;-78
2023/09/25 01:17:57;;;;;;;2.95;2.20;;;;;;;;;;5042674;28;20029;-78
2023/09/25 01:20:24;;;;;;;3.03;2.25;;;;;;;;;;5048998;28;20036;-80
2023/09/25 01:22:50;;;;;;;4.03;1.83;;;;;;;;;;5024265;28;20037;-79
2023/09/25 01:25:17;;;;;;;3.13;2.28;;;;;;;;;;5031717;28;20158;-80
2023/09/25 01:27:44;;;;;;;6.35;1.92;;;;;;;;;;5042920;28;20128;-77
2023/09/25 01:30:11;;;;;;;2.83;2.38;;;;;;;;;;5031562;28;20020;-77
2023/09/25 01:32:37;;;;;;;2.63;1.90;;;;;;;;;;5043513;28;20021;-78
2023/09/25 01:35:05;;;;;;;3.25;2.00;;;;;;;;;;5038799;28;20167;-78
2023/09/25 01:37:30;;;;;;;2.47;1.90;;;;;;;;;;5045661;28;20071;-77
2023/09/25 01:39:56;;;;;;;2.47;2.28;;;;;;;;;;5047239;28;20048;-78
2023/09/25 01:42:21;;;;;;;3.30;2.28;;;;;;;;;;5052777;28;20024;-78
2023/09/25 01:44:46;;;;;;;4.10;2.28;;;;;;;;;;5052385;28;20017;-78
2023/09/25 01:47:12;;;;;;;2.00;1.90;;;;;;;;;;5056446;28;20032;-79
2023/09/25 01:49:37;;;;;;;2.58;2.03;;;;;;;;;;5049701;28;20113;-78
2023/09/25 01:52:07;;;;;;;3.42;2.25;;;;;;;;;;5036891;28;20041;-79
2023/09/25 01:54:32;;;;;;;5.93;2.17;;;;;;;;;;5049977;28;20101;-79
2023/09/25 01:56:58;;;;;;;2.65;1.77;;;;;;;;;;5054766;28;20054;-79
2023/09/25 01:59:23;;;;;;;4.45;2.47;;;;;;;;;;5032246;28;20029;-79
2023/09/25 02:01:48;;;;;;;2.15;1.88;;;;;;;;;;5034944;28;20029;-78
2023/09/25 02:04:14;;;;;;;3.72;2.30;;;;;;;;;;5051785;28;20060;-79
2023/09/25 02:06:39;;;;;;;2.80;2.45;;;;;;;;;;5031616;28;20041;-79
2023/09/25 02:09:04;;;;;;;3.75;2.45;;;;;;;;;;5023650;28;20021;-79
2023/09/25 02:11:30;;;;;;;3.83;2.13;;;;;;;;;;5047919;28;20036;-79
2023/09/25 02:13:55;;;;;;;2.70;2.10;;;;;;;;;;5029391;28;20060;-79
2023/09/25 02:16:20;;;;;;;2.85;2.28;;;;;;;;;;5031666;28;20033;-79
2023/09/25 02:18:46;;;;;;;2.40;2.08;;;;;;;;;;5031089;28;20043;-79
2023/09/25 02:21:11;;;;;;;5.65;2.10;;;;;;;;;;5028128;28;20021;-78
2023/09/25 02:23:36;;;;;;;2.30;2.10;;;;;;;;;;5052535;28;20026;-78
2023/09/25 02:26:02;;;;;;;1.90;1.77;;;;;;;;;;5048510;28;20697;-79
2023/09/25 02:28:27;;;;;;;2.90;2.15;;;;;;;;;;5046843;28;20560;-79
2023/09/25 02:30:52;;;;;;;2.25;2.05;;;;;;;;;;5041939;28;20049;-79
2023/09/25 02:33:18;;;;;;;2.40;2.20;;;;;;;;;;5045640;28;20029;-79
2023/09/25 02:35:43;;;;;;;4.35;2.25;;;;;;;;;;5049875;28;20390;-79
2023/09/25 02:38:09;;;;;;;2.28;2.00;;;;;;;;;;5048879;28;20029;-78
2023/09/25 02:40:34;;;;;;;3.42;2.42;;;;;;;;;;5047386;28;20099;-78
2023/09/25 02:43:00;;;;;;;3.03;2.08;;;;;;;;;;5049618;28;20112;-80
2023/09/25 02:45:25;;;;;;;2.92;1.70;;;;;;;;;;5049744;28;20029;-78
2023/09/25 02:47:51;;;;;;;2.17;1.98;;;;;;;;;;5045111;28;20025;-78
2023/09/25 02:50:16;;;;;;;2.10;1.85;;;;;;;;;;5049455;28;20110;-78
2023/09/25 02:52:44;;;;;;;3.45;2.00;;;;;;;;;;5049487;28;20041;-79
2023/09/25 02:55:10;;;;;;;1.80;1.70;;;;;;;;;;5051977;28;20597;-79
2023/09/25 02:57:36;;;;;;;2.88;1.67;;;;;;;;;;5051043;28;20033;-79
2023/09/25 03:00:05;;;;;;;3.13;1.95;;;;;;;;;;5054135;28;20040;-80
2023/09/25 03:02:30;;;;;;;2.78;2.30;;;;;;;;;;5046896;28;20049;-79
2023/09/25 03:04:55;;;;;;;3.80;1.80;;;;;;;;;;5052998;28;20068;-80
2023/09/25 03:07:21;;;;;;;4.22;2.22;;;;;;;;;;5054097;28;20061;-80
2023/09/25 03:09:46;;;;;;;2.10;2.00;;;;;;;;;;5055598;28;20040;-79
2023/09/25 03:12:11;;;;;;;2.50;2.30;;;;;;;;;;5048782;28;20458;-77
2023/09/25 03:14:37;;;;;;;3.90;2.10;;;;;;;;;;5049553;28;20124;-78
2023/09/25 03:17:02;;;;;;;5.43;2.17;;;;;;;;;;5049150;28;20043;-78
2023/09/25 03:19:31;;;;;;;5.43;2.22;;;;;;;;;;5051085;28;20037;-78
2023/09/25 03:21:56;;;;;;;5.15;2.17;;;;;;;;;;5049118;28;20041;-79
2023/09/25 03:24:21;;;;;;;2.20;1.98;;;;;;;;;;5050498;28;20048;-78
2023/09/25 03:26:49;;;;;;;2.95;2.30;;;;;;;;;;5048702;28;20021;-78
2023/09/25 03:29:14;;;;;;;4.90;2.10;;;;;;;;;;5052823;28;20057;-79
2023/09/25 03:31:40;;;;;;;4.40;2.10;;;;;;;;;;5056385;28;20030;-79
2023/09/25 03:34:05;;;;;;;4.95;2.28;;;;;;;;;;5056026;28;20033;-78
2023/09/25 03:36:30;;;;;;;2.70;2.50;;;;;;;;;;5056387;28;20036;-80
2023/09/25 03:38:56;;;;;;;2.70;2.13;;;;;;;;;;5056637;28;20112;-80
2023/09/25 03:41:21;;;;;;;5.10;2.40;;;;;;;;;;5057001;28;20033;-80
2023/09/25 03:43:47;;;;;;;5.50;2.10;;;;;;;;;;5057672;28;20280;-80
2023/09/25 03:46:12;;;;;;;3.83;2.05;;;;;;;;;;5057326;28;20090;-79
2023/09/25 03:48:37;;;;;;;3.65;2.55;;;;;;;;;;5056137;28;20041;-80
2023/09/25 03:51:03;;;;;;;2.55;2.28;;;;;;;;;;5056069;28;20539;-80
2023/09/25 03:53:28;;;;;;;3.08;2.75;;;;;;;;;;5054955;28;20129;-78
2023/09/25 03:55:53;;;;;;;5.65;3.00;;;;;;;;;;5056910;28;20472;-80
2023/09/25 03:58:19;;;;;;;2.70;2.35;;;;;;;;;;5056783;28;20029;-79
2023/09/25 04:00:44;;;;;;;2.50;2.30;;;;;;;;;;5055323;28;20032;-80
2023/09/25 04:03:09;;;;;;;3.10;2.35;;;;;;;;;;5056565;28;20052;-80
2023/09/25 04:05:35;;;;;;;3.00;2.70;;;;;;;;;;5055996;28;20024;-79
2023/09/25 04:08:00;;;;;;;4.55;2.30;;;;;;;;;;5054532;28;20029;-78
2023/09/25 04:10:27;;;;;;;7.78;3.05;;;;;;;;;;5056075;28;20455;-80
2023/09/25 04:12:52;;;;;;;2.95;2.55;;;;;;;;;;5054742;28;20037;-80
2023/09/25 04:15:17;;;;;;;2.55;2.20;;;;;;;;;;5054973;28;20045;-79
2023/09/25 04:17:43;;;;;;;2.55;2.20;;;;;;;;;;5056589;28;20032;-79
2023/09/25 04:20:24;;;;;;;4.15;2.40;;;;;;;;;;5054767;28;20043;-80
2023/09/25 04:22:51;;;;;;;2.50;2.30;;;;;;;;;;5055307;28;20029;-79
2023/09/25 04:25:20;;;;;;;3.17;2.78;;;;;;;;;;5056987;28;20443;-80
2023/09/25 04:27:54;;;;;;;5.80;3.03;;;;;;;;;;5056627;28;20124;-80
2023/09/25 04:30:20;;;;;;;3.20;2.25;;;;;;;;;;5056870;28;20032;-81
2023/09/25 04:32:47;;;;;;;3.05;2.30;;;;;;;;;;5055286;28;20025;-80
2023/09/25 04:35:15;;;;;;;5.50;2.42;;;;;;;;;;5055074;28;20032;-79
2023/09/25 04:37:41;;;;;;;2.67;2.47;;;;;;;;;;5055576;28;20044;-80
2023/09/25 04:40:22;;;;;;;2.72;2.28;;;;;;;;;;5056424;28;20041;-80
2023/09/25 04:42:52;;;;;;;2.53;2.33;;;;;;;;;;5055822;28;20029;-80
2023/09/25 04:45:18;;;;;;;4.93;2.40;;;;;;;;;;5056830;28;20043;-77
2023/09/25 04:47:48;;;;;;;6.50;3.05;;;;;;;;;;5056833;28;20071;-80
2023/09/25 04:50:14;;;;;;;8.05;3.38;;;;;;;;;;5057294;28;20531;-79
2023/09/25 04:52:40;;;;;;;7.60;3.25;;;;;;;;;;5056679;28;20041;-79
2023/09/25 04:55:07;;;;;;;4.90;3.10;;;;;;;;;;5058037;28;20040;-80
2023/09/25 04:57:33;;;;;;;6.50;3.40;;;;;;;;;;5059503;28;20033;-80
2023/09/25 04:59:58;;;;;;;4.35;3.30;;;;;;;;;;5058650;28;20032;-79
2023/09/25 05:02:24;;;;;;;5.32;4.32;;;;;;;;;;5056484;28;20033;-79
2023/09/25 05:04:49;;;;;;;3.95;3.47;;;;;;;;;;5054940;28;20421;-79
2023/09/25 05:07:14;;;;;;;3.50;3.20;;;;;;;;;;5054018;28;20025;-79
2023/09/25 05:09:40;;;;;;;2.95;2.70;;;;;;;;;;5054711;28;20025;-78
2023/09/25 05:12:05;;;;;;;3.63;3.33;;;;;;;;;;5055369;28;20497;-80
2023/09/25 05:14:30;;;;;;;29.23;3.60;;;;;;;;;;5055236;28;20025;-77
2023/09/25 05:16:56;;;;;;;2.67;2.47;;;;;;;;;;5054970;28;20036;-79
2023/09/25 05:19:21;;;;;;;43.45;4.10;;;;;;;;;;5056126;28;20033;-79
2023/09/25 05:21:46;;;;;;;10.90;3.50;;;;;;;;;;5056583;28;20025;-79
2023/09/25 05:24:12;;;;;;;4.25;2.90;;;;;;;;;;5055361;28;20024;-80
2023/09/25 05:26:37;;;;;;;3.35;2.80;;;;;;;;;;5056702;28;20029;-77
2023/09/25 05:29:02;;;;;;;5.38;3.10;;;;;;;;;;5055770;28;20071;-79
2023/09/25 05:31:28;;;;;;;3.90;2.90;;;;;;;;;;5054589;28;20033;-80
2023/09/25 05:33:54;;;;;;;3.78;3.15;;;;;;;;;;5054563;28;20072;-79
2023/09/25 05:36:20;;;;;;;3.85;2.90;;;;;;;;;;5054964;28;20477;-80
2023/09/25 05:38:46;;;;;;;3.72;3.30;;;;;;;;;;5055734;28;20040;-79
2023/09/25 05:41:11;;;;;;;64.05;7.22;;;;;;;;;;5055218;28;20032;-80
2023/09/25 05:43:38;;;;;;;11.68;3.83;;;;;;;;;;5056124;28;20447;-80
2023/09/25 05:46:03;;;;;;;4.90;3.78;;;;;;;;;;5054102;28;20095;-80
2023/09/25 05:48:29;;;;;;;6.78;4.18;;;;;;;;;;5055102;28;20033;-78
2023/09/25 05:50:54;;;;;;;3.95;3.58;;;;;;;;;;5054049;28;20158;-80
2023/09/25 05:53:19;;;;;;;7.68;4.05;;;;;;;;;;5055344;28;20053;-80
2023/09/25 05:55:45;;;;;;;3.72;3.42;;;;;;;;;;5056253;28;20033;-80
2023/09/25 05:58:10;;;;;;;3.45;3.15;;;;;;;;;;5055529;28;20059;-81
2023/09/25 06:00:35;;;;;;;4.55;3.20;;;;;;;;;;5056799;28;20048;-80
2023/09/25 06:03:01;;;;;;;3.08;2.83;;;;;;;;;;5056044;28;20485;-79
2023/09/25 06:05:26;;;;;;;3.60;2.90;;;;;;;;;;5055735;28;20039;-80
2023/09/25 06:07:52;;;;;;;2.30;2.10;;;;;;;;;;5055523;28;20037;-80
2023/09/25 06:10:18;;;;;;;2.15;1.80;;;;;;;;;;5055914;28;20041;-80
2023/09/25 06:12:44;;;;;;;2.72;1.50;;;;;;;;;;5054412;28;20041;-81
2023/09/25 06:15:10;;;;;;;2.45;1.70;;;;;;;;;;5055786;28;20025;-79
2023/09/25 06:17:38;;;;;;;1.92;1.83;;;;;;;;;;5058223;28;20029;-81
2023/09/25 06:20:05;;;;;;;4.22;1.70;;;;;;;;;;5058282;28;20104;-80
2023/09/25 06:22:33;;;;;;;2.17;1.60;;;;;;;;;;5060766;28;20033;-81
2023/09/25 06:24:59;;;;;;;1.70;1.60;;;;;;;;;;5058906;28;20029;-79
2023/09/25 06:27:24;;;;;;;2.90;1.50;;;;;;;;;;5059915;28;20132;-80
2023/09/25 06:29:49;;;;;;;1.92;1.60;;;;;;;;;;5060814;28;20017;-81
2023/09/25 06:32:15;;;;;;;2.03;1.40;;;;;;;;;;5059668;28;20057;-81
2023/09/25 06:34:40;;;;;;;2.20;1.60;;;;;;;;;;5058842;28;20044;-81
2023/09/25 06:37:06;;;;;;;1.40;1.30;;;;;;;;;;5059360;28;20067;-82
2023/09/25 06:39:33;;;;;;;1.40;1.30;;;;;;;;;;5059404;28;20051;-81
2023/09/25 06:41:58;;;;;;;1.50;1.40;;;;;;;;;;5066769;28;20577;-80
2023/09/25 06:44:24;;;;;;;2.33;1.33;;;;;;;;;;5056836;28;20039;-80
2023/09/25 06:46:49;;;;;;;3.25;1.50;;;;;;;;;;5057397;28;20045;-80
2023/09/25 06:49:16;;;;;;;1.65;1.52;;;;;;;;;;5057385;28;20112;-81
2023/09/25 06:51:42;;;;;;;10.23;1.80;;;;;;;;;;5056873;28;20401;-80
2023/09/25 06:54:08;;;;;;;1.42;1.33;;;;;;;;;;5056837;28;20040;-80
2023/09/25 06:56:34;;;;;;;1.40;1.30;;;;;;;;;;5057562;28;20036;-79
2023/09/25 06:58:59;;;;;;;2.80;1.40;;;;;;;;;;5056143;28;20029;-79
2023/09/25 07:01:24;;;;;;;3.65;1.65;;;;;;;;;;5054839;28;20044;-79
2023/09/25 07:03:50;;;;;;;1.88;1.67;;;;;;;;;;5055375;28;20029;-80
2023/09/25 07:06:15;;;;;;;2.83;1.95;;;;;;;;;;5057843;28;20066;-80
2023/09/25 07:08:41;;;;;;;2.50;1.50;;;;;;;;;;5054128;28;20029;-79
2023/09/25 07:11:06;;;;;;;2.88;1.52;;;;;;;;;;5036562;28;20042;-77
2023/09/25 07:13:32;;;;;;;1.65;1.40;;;;;;;;;;5034536;28;20029;-79
2023/09/25 07:16:10;;;;;;;1.63;1.52;;;;;;;;;;5035774;28;20048;-78
2023/09/25 07:18:36;;;;;;;1.95;1.40;;;;;;;;;;5037304;28;20033;-79
2023/09/25 07:21:02;;;;;;;3.00;1.63;;;;;;;;;;5036573;28;20032;-79
2023/09/25 07:23:27;;;;;;;3.42;1.80;;;;;;;;;;5035038;28;20034;-79
2023/09/25 07:26:00;;;;;;;1.70;1.60;;;;;;;;;;5034959;28;20045;-78
2023/09/25 07:28:26;;;;;;;2.38;1.70;;;;;;;;;;5036062;28;20087;-80
2023/09/25 07:30:51;;;;;;;2.25;1.50;;;;;;;;;;5034713;28;20401;-79
2023/09/25 07:33:16;;;;;;;2.90;1.70;;;;;;;;;;5037097;28;20111;-80
2023/09/25 07:35:42;;;;;;;2.63;1.67;;;;;;;;;;5036922;28;20072;-78
2023/09/25 07:38:07;;;;;;;1.80;1.70;;;;;;;;;;5034631;28;20029;-76
2023/09/25 07:40:33;;;;;;;2.30;1.60;;;;;;;;;;5034404;28;20386;-79
2023/09/25 07:42:58;;;;;;;1.52;1.42;;;;;;;;;;5034877;28;20037;-79
2023/09/25 07:45:25;;;;;;;2.30;1.58;;;;;;;;;;5036062;28;20374;-79
2023/09/25 07:47:52;;;;;;;1.50;1.40;;;;;;;;;;5045414;28;20481;-78
2023/09/25 07:50:19;;;;;;;2.08;1.77;;;;;;;;;;5046598;28;20029;-78
2023/09/25 07:52:44;;;;;;;1.73;1.60;;;;;;;;;;5049520;28;20037;-78
2023/09/25 07:55:13;;;;;;;2.75;1.63;;;;;;;;;;5047140;28;20033;-78
2023/09/25 07:57:43;;;;;;;1.42;1.30;;;;;;;;;;5047854;28;20033;-78
2023/09/25 08:00:17;;;;;;;1.52;1.27;;;;;;;;;;5043930;28;20637;-78
2023/09/25 08:02:47;;;;;;;1.40;1.30;;;;;;;;;;5046796;28;20373;-78
2023/09/25 08:05:17;;;;;;;2.03;1.52;;;;;;;;;;5044152;28;20465;-78
2023/09/25 08:07:43;;;;;;;2.10;1.67;;;;;;;;;;5039911;28;20029;-78
2023/09/25 08:10:08;;;;;;;3.22;1.75;;;;;;;;;;5033608;28;20152;-77
2023/09/25 08:12:34;;;;;;;3.85;1.73;;;;;;;;;;5042366;28;20980;-78
2023/09/25 08:14:59;;;;;;;2.08;1.42;;;;;;;;;;5046100;28;20092;-78
2023/09/25 08:17:24;;;;;;;3.13;1.75;;;;;;;;;;5042530;28;20480;-78
2023/09/25 08:19:54;;;;;;;4.07;1.60;;;;;;;;;;5045775;28;20072;-77
2023/09/25 08:22:20;;;;;;;5.40;1.58;;;;;;;;;;5040633;28;20108;-80
2023/09/25 08:24:46;;;;;;;2.17;1.50;;;;;;;;;;5044876;28;20025;-80
2023/09/25 08:27:12;;;;;;;2.50;1.60;;;;;;;;;;5046716;28;20117;-80
2023/09/25 08:29:37;;;;;;;4.47;1.65;;;;;;;;;;5047782;28;20033;-80
2023/09/25 08:32:03;;;;;;;1.45;1.30;;;;;;;;;;5045370;28;20531;-80
2023/09/25 08:34:28;;;;;;;1.60;1.50;;;;;;;;;;5047570;28;20400;-80
2023/09/25 08:36:53;;;;;;;2.13;1.58;;;;;;;;;;5044055;28;20504;-78
2023/09/25 08:39:19;;;;;;;2.45;1.55;;;;;;;;;;5051256;28;20021;-78
2023/09/25 08:41:46;;;;;;;2.28;1.50;;;;;;;;;;5051642;28;20021;-78
2023/09/25 08:44:14;;;;;;;2.15;1.60;;;;;;;;;;5044324;28;20025;-77
2023/09/25 08:46:40;;;;;;;4.35;1.67;;;;;;;;;;5045851;28;20639;-78
2023/09/25 08:49:06;;;;;;;1.55;1.45;;;;;;;;;;5043101;28;20054;-78
2023/09/25 08:51:38;;;;;;;1.63;1.40;;;;;;;;;;5044977;28;20032;-78
2023/09/25 08:54:04;;;;;;;4.13;1.33;;;;;;;;;;5038158;28;20115;-79
2023/09/25 08:56:33;;;;;;;1.77;1.35;;;;;;;;;;5039384;28;20154;-79
2023/09/25 08:59:03;;;;;;;1.98;1.45;;;;;;;;;;5042901;28;20051;-77
2023/09/25 09:01:29;;;;;;;3.10;1.60;;;;;;;;;;5039946;28;20037;-78
2023/09/25 09:03:55;;;;;;;2.67;1.30;;;;;;;;;;5041744;28;20053;-77
2023/09/25 09:06:20;;;;;;;1.38;1.27;;;;;;;;;;5046423;28;20036;-77
2023/09/25 09:08:48;;;;;;;3.92;1.55;;;;;;;;;;5047411;28;20017;-78
2023/09/25 09:11:14;;;;;;;2.03;1.30;;;;;;;;;;5045519;28;20029;-78
2023/09/25 09:13:43;;;;;;;2.28;1.33;;;;;;;;;;5042967;28;20033;-78
2023/09/25 09:16:14;;;;;;;1.58;1.48;;;;;;;;;;5043417;28;20445;-79
2023/09/25 09:18:40;;;;;;;1.45;1.25;;;;;;;;;;5042758;28;20512;-78
2023/09/25 09:21:08;;;;;;;1.45;1.30;;;;;;;;;;5046226;28;20032;-78
2023/09/25 09:23:41;;;;;;;1.40;1.30;;;;;;;;;;5046030;28;20071;-78
2023/09/25 09:26:08;;;;;;;1.38;1.23;;;;;;;;;;5042663;28;20394;-77
2023/09/25 09:28:34;;;;;;;1.52;1.35;;;;;;;;;;5042271;28;20041;-78
2023/09/25 09:31:00;;;;;;;1.38;1.25;;;;;;;;;;5041171;28;20033;-78
2023/09/25 09:33:29;;;;;;;1.45;1.30;;;;;;;;;;5045448;28;20041;-78
2023/09/25 09:35:55;;;;;;;1.70;1.10;;;;;;;;;;5043102;28;20493;-78
2023/09/25 09:38:21;;;;;;;1.30;1.20;;;;;;;;;;5039753;28;20617;-77
2023/09/25 09:40:48;;;;;;;3.67;1.42;;;;;;;;;;5039423;28;20627;-78
2023/09/25 09:43:13;;;;;;;1.83;1.20;;;;;;;;;;5035170;28;20151;-77
2023/09/25 09:45:39;;;;;;;3.95;1.25;;;;;;;;;;5029990;28;20368;-78
2023/09/25 09:48:06;;;;;;;1.27;1.17;;;;;;;;;;5022706;28;21014;-77
2023/09/25 09:50:33;;;;;;;1.45;1.35;;;;;;;;;;5037550;28;20027;-77
2023/09/25 09:52:59;;;;;;;1.35;1.20;;;;;;;;;;5037415;28;20506;-77
2023/09/25 09:55:31;;;;;;;1.30;1.20;;;;;;;;;;5027980;28;20084;-78
2023/09/25 09:57:57;;;;;;;1.13;1.13;;;;;;;;;;5038007;28;20759;-78
2023/09/25 10:00:23;;;;;;;3.05;1.20;;;;;;;;;;5035350;28;20163;-78
2023/09/25 10:02:49;;;;;;;2.25;1.10;;;;;;;;;;5037502;28;20033;-78
2023/09/25 10:05:15;;;;;;;1.63;1.40;;;;;;;;;;5032224;28;20091;-78
2023/09/25 10:08:06;;;;;;;1.40;1.30;;;;;;;;;;5029556;28;20041;-77
2023/09/25 10:10:32;;;;;;;3.70;1.10;;;;;;;;;;5027382;28;20037;-77
2023/09/25 10:12:58;;;;;;;3.10;1.20;;;;;;;;;;5031143;28;20072;-78
2023/09/25 10:15:25;;;;;;;4.25;1.42;;;;;;;;;;5034859;28;20041;-77
2023/09/25 10:17:52;;;;;;;1.85;1.30;;;;;;;;;;5034619;28;21023;-78
2023/09/25 10:20:42;;;;;;;1.20;1.10;;;;;;;;;;5043694;28;20025;-78
2023/09/25 10:23:16;;;;;;;1.40;1.30;;;;;;;;;;5043979;28;20051;-78
2023/09/25 10:25:46;;;;;;;1.30;1.20;;;;;;;;;;5039145;28;20564;-78
2023/09/25 10:28:21;;;;;;;5.68;1.30;;;;;;;;;;5042211;28;20080;-78
2023/09/25 10:30:48;;;;;;;1.38;1.25;;;;;;;;;;5039607;28;20183;-78
2023/09/25 10:33:15;;;;;;;1.90;1.27;;;;;;;;;;5037680;28;20071;-78
2023/09/25 10:35:49;;;;;;;1.20;1.10;;;;;;;;;;5044712;28;20013;-78
2023/09/25 10:38:25;;;;;;;1.47;1.20;;;;;;;;;;5047043;28;20402;-78
2023/09/25 10:40:54;;;;;;;1.40;1.30;;;;;;;;;;5047568;28;20033;-78
2023/09/25 10:43:21;;;;;;;1.67;1.10;;;;;;;;;;5041507;28;20132;-78
2023/09/25 10:45:47;;;;;;;1.42;1.17;;;;;;;;;;5040695;28;20084;-78
2023/09/25 10:48:12;;;;;;;2.05;1.58;;;;;;;;;;5049393;28;20025;-78
2023/09/25 10:50:39;;;;;;;1.25;1.00;;;;;;;;;;5050427;28;20013;-78
2023/09/25 10:53:06;;;;;;;1.10;1.00;;;;;;;;;;5044637;28;20045;-78
2023/09/25 10:55:32;;;;;;;1.55;1.40;;;;;;;;;;5047285;28;20047;-78
2023/09/25 10:57:58;;;;;;;1.58;1.23;;;;;;;;;;5037743;28;20056;-78
2023/09/25 11:00:24;;;;;;;1.42;1.20;;;;;;;;;;5038352;28;20531;-78
2023/09/25 11:02:51;;;;;;;1.20;1.05;;;;;;;;;;5042939;28;20127;-78
2023/09/25 11:05:16;;;;;;;2.15;1.60;;;;;;;;;;5043592;28;20192;-78
2023/09/25 11:07:42;;;;;;;1.15;1.15;;;;;;;;;;5045398;28;20067;-78
2023/09/25 11:10:09;;;;;;;3.92;1.27;;;;;;;;;;5045160;28;20042;-78
2023/09/25 11:12:35;;;;;;;2.90;1.20;;;;;;;;;;5037710;28;20045;-77
2023/09/25 11:15:01;;;;;;;1.80;1.20;;;;;;;;;;5040875;28;20029;-78
2023/09/25 11:17:26;;;;;;;2.65;1.08;;;;;;;;;;5037891;28;20299;-78
2023/09/25 11:19:52;;;;;;;2.15;1.30;;;;;;;;;;5037883;28;20116;-78
2023/09/25 11:22:21;;;;;;;1.50;1.40;;;;;;;;;;5035121;28;20041;-78
2023/09/25 11:24:58;;;;;;;2.17;1.40;;;;;;;;;;5041787;28;20371;-78
2023/09/25 11:27:23;;;;;;;1.52;1.20;;;;;;;;;;5035427;28;20106;-78
2023/09/25 11:29:51;;;;;;;2.30;1.40;;;;;;;;;;5035806;28;20024;-78
2023/09/25 11:32:17;;;;;;;1.42;1.20;;;;;;;;;;5038435;28;20614;-78
2023/09/25 11:34:47;;;;;;;1.13;1.10;;;;;;;;;;5037343;28;20042;-78
2023/09/25 11:37:22;;;;;;;4.03;1.55;;;;;;;;;;5047640;28;20033;-78
2023/09/25 11:39:48;;;;;;;1.90;1.25;;;;;;;;;;5040800;28;20403;-78
2023/09/25 11:42:14;;;;;;;2.42;1.30;;;;;;;;;;5038051;28;20032;-78
2023/09/25 11:44:39;;;;;;;2.88;1.40;;;;;;;;;;5038897;28;20032;-79
2023/09/25 11:47:08;;;;;;;4.03;1.35;;;;;;;;;;5040643;28;20037;-78
2023/09/25 11:49:33;;;;;;;2.40;1.40;;;;;;;;;;5041332;28;20033;-78
2023/09/25 11:51:58;;;;;;;2.22;1.30;;;;;;;;;;5045446;28;20584;-78
2023/09/25 11:54:24;;;;;;;1.30;1.20;;;;;;;;;;5041623;28;20044;-78
2023/09/25 11:56:49;;;;;;;2.50;1.20;;;;;;;;;;5044016;28;20043;-78
2023/09/25 11:59:16;;;;;;;1.88;1.40;;;;;;;;;;5044336;28;20048;-78
2023/09/25 12:01:41;;;;;;;1.63;1.10;;;;;;;;;;5036929;28;20048;-78
2023/09/25 12:04:08;;;;;;;1.80;1.20;;;;;;;;;;5048242;28;20051;-78
2023/09/25 12:06:34;;;;;;;1.60;1.25;;;;;;;;;;5049799;28;20059;-78
2023/09/25 12:09:10;;;;;;;2.28;1.15;;;;;;;;;;5047842;28;20159;-78
2023/09/25 12:11:35;;;;;;;1.50;1.40;;;;;;;;;;5046677;28;20045;-78
2023/09/25 12:14:01;;;;;;;1.42;1.15;;;;;;;;;;5037856;28;20064;-78
2023/09/25 12:16:26;;;;;;;2.03;1.45;;;;;;;;;;5044483;28;20520;-78
2023/09/25 12:18:51;;;;;;;2.30;1.42;;;;;;;;;;5046617;28;20116;-78
2023/09/25 12:21:17;;;;;;;1.30;1.20;;;;;;;;;;5038287;28;20037;-78
2023/09/25 12:23:43;;;;;;;1.50;1.40;;;;;;;;;;5043144;28;20029;-78
2023/09/25 12:26:08;;;;;;;1.60;1.50;;;;;;;;;;5042520;28;20374;-77
2023/09/25 12:28:34;;;;;;;1.40;1.23;;;;;;;;;;5040398;28;20041;-77
2023/09/25 12:30:59;;;;;;;1.50;1.40;;;;;;;;;;5044208;28;20029;-78
2023/09/25 12:33:25;;;;;;;2.38;1.40;;;;;;;;;;5046207;28;20036;-78
2023/09/25 12:35:50;;;;;;;1.50;1.20;;;;;;;;;;5040340;28;20068;-78
2023/09/25 12:38:15;;;;;;;1.38;1.27;;;;;;;;;;5039810;28;20040;-78
2023/09/25 12:40:41;;;;;;;2.60;1.27;;;;;;;;;;5035771;28;20122;-78
2023/09/25 12:43:06;;;;;;;2.80;1.20;;;;;;;;;;5034067;28;20041;-78
2023/09/25 12:45:31;;;;;;;2.33;1.48;;;;;;;;;;5041432;28;20059;-78
2023/09/25 12:47:57;;;;;;;1.88;1.45;;;;;;;;;;5037621;28;20529;-78
2023/09/25 12:50:23;;;;;;;2.75;1.33;;;;;;;;;;5040138;28;20042;-78
2023/09/25 12:52:49;;;;;;;1.40;1.10;;;;;;;;;;5034065;28;20036;-78
2023/09/25 12:55:14;;;;;;;1.38;1.27;;;;;;;;;;5029855;28;20034;-78
2023/09/25 12:57:39;;;;;;;1.77;1.50;;;;;;;;;;5034758;28;20342;-78
2023/09/25 13:00:05;;;;;;;1.40;1.30;;;;;;;;;;5038548;28;20116;-78
2023/09/25 13:02:31;;;;;;;1.85;1.17;;;;;;;;;;5037401;28;20159;-78
2023/09/25 13:04:56;;;;;;;1.50;1.40;;;;;;;;;;5042499;28;20107;-78
2023/09/25 13:07:21;;;;;;;1.50;1.40;;;;;;;;;;5042841;28;20492;-78
2023/09/25 13:09:47;;;;;;;1.35;1.20;;;;;;;;;;5040108;28;20397;-78
2023/09/25 13:12:12;;;;;;;3.33;1.42;;;;;;;;;;5040811;28;20096;-78
2023/09/25 13:14:37;;;;;;;1.20;1.17;;;;;;;;;;5037036;28;20429;-78
2023/09/25 13:17:03;;;;;;;1.60;1.27;;;;;;;;;;5039999;28;20449;-78
2023/09/25 13:19:28;;;;;;;1.52;1.35;;;;;;;;;;5042134;28;20476;-78
2023/09/25 13:21:53;;;;;;;3.17;1.77;;;;;;;;;;5039341;28;20037;-78
2023/09/25 13:24:19;;;;;;;1.48;1.38;;;;;;;;;;5043634;28;20505;-78
2023/09/25 13:26:45;;;;;;;1.50;1.40;;;;;;;;;;5037506;28;20033;-78
2023/09/25 13:29:10;;;;;;;1.60;1.50;;;;;;;;;;5039710;28;20099;-78
2023/09/25 13:31:35;;;;;;;1.85;1.30;;;;;;;;;;5043143;28;20036;-78
2023/09/25 13:34:01;;;;;;;1.52;1.33;;;;;;;;;;5040435;28;20052;-78
2023/09/25 13:36:26;;;;;;;1.35;1.20;;;;;;;;;;5041467;28;20075;-78
2023/09/25 13:38:54;;;;;;;1.40;1.30;;;;;;;;;;5040640;28;20033;-78
2023/09/25 13:41:19;;;;;;;4.75;1.40;;;;;;;;;;5041025;28;20034;-78
2023/09/25 13:43:44;;;;;;;1.95;1.58;;;;;;;;;;5033818;28;20036;-78
2023/09/25 13:46:10;;;;;;;1.95;1.30;;;;;;;;;;5034435;28;20037;-78
2023/09/25 13:48:36;;;;;;;2.15;1.60;;;;;;;;;;5031973;28;20087;-79
2023/09/25 13:51:06;;;;;;;1.45;1.30;;;;;;;;;;5036946;28;20048;-79
2023/09/25 13:53:32;;;;;;;4.82;1.30;;;;;;;;;;5040968;28;20529;-79
2023/09/25 13:55:58;;;;;;;2.88;1.30;;;;;;;;;;5048602;28;20936;-79
2023/09/25 13:58:23;;;;;;;1.33;1.23;;;;;;;;;;5037829;28;20041;-76
2023/09/25 14:00:49;;;;;;;2.63;1.50;;;;;;;;;;5035318;28;20072;-79
2023/09/25 14:03:14;;;;;;;1.92;1.40;;;;;;;;;;5037465;28;20025;-80
2023/09/25 14:05:40;;;;;;;4.53;1.45;;;;;;;;;;5036930;28;20116;-78
2023/09/25 14:08:05;;;;;;;2.70;1.50;;;;;;;;;;5037819;28;20492;-77
2023/09/25 14:10:37;;;;;;;1.38;1.10;;;;;;;;;;5035031;28;20087;-77
2023/09/25 14:13:05;;;;;;;1.20;1.10;;;;;;;;;;5033240;28;20038;-77
2023/09/25 14:15:30;;;;;;;1.23;1.20;;;;;;;;;;5029118;28;20041;-77
2023/09/25 14:17:55;;;;;;;1.35;1.20;;;;;;;;;;5031846;28;20033;-77
2023/09/25 14:20:21;;;;;;;4.22;1.45;;;;;;;;;;5030584;28;20513;-78
2023/09/25 14:22:46;;;;;;;1.33;1.20;;;;;;;;;;5034735;28;20044;-77
2023/09/25 14:25:11;;;;;;;4.88;1.33;;;;;;;;;;5034209;28;20096;-77
2023/09/25 14:27:36;;;;;;;2.00;1.50;;;;;;;;;;5031254;28;20036;-78
2023/09/25 14:30:02;;;;;;;2.75;1.92;;;;;;;;;;5038072;28;20032;-77
2023/09/25 14:32:28;;;;;;;1.63;1.50;;;;;;;;;;5028684;28;20506;-77
2023/09/25 14:34:53;;;;;;;1.40;1.30;;;;;;;;;;5027800;28;20045;-77
2023/09/25 14:37:18;;;;;;;1.30;1.20;;;;;;;;;;5027968;28;20440;-78